createdAt,value
2023-01-29T00:28:47.004Z,100
2023-01-29T01:28:49.377Z,100
2023-01-29T01:38:49.650Z,100
2023-01-29T01:48:50.366Z,100
2023-01-29T02:08:52.307Z,100
2023-01-29T02:18:53.057Z,100
2023-01-29T02:28:53.320Z,100
2023-01-29T02:38:53.766Z,100
2023-01-29T02:48:54.808Z,100
2023-01-29T02:58:55.207Z,100
2023-01-29T03:08:55.382Z,100
2023-01-29T03:18:55.854Z,100
2023-01-29T03:28:56.217Z,100
2023-01-29T03:38:56.370Z,100
2023-01-29T03:48:56.728Z,100
2023-01-29T03:58:57.206Z,100
2023-01-29T04:08:57.797Z,100
2023-01-29T04:28:59.209Z,100
2023-01-29T04:39:00.137Z,100
2023-01-29T04:49:00.890Z,100
2023-01-29T04:59:01.928Z,100
2023-01-29T05:09:02.520Z,100
2023-01-29T05:19:02.792Z,100
2023-01-29T05:29:03.020Z,100
2023-01-29T05:39:03.665Z,100
2023-01-29T05:49:04.714Z,100
2023-01-29T05:59:05.604Z,100
2023-01-29T06:19:06.695Z,100
2023-01-29T06:29:07.405Z,100
2023-01-29T06:39:07.824Z,100
2023-01-29T06:49:08.155Z,100
2023-01-29T06:59:08.392Z,100
2023-01-29T07:09:09.394Z,100
2023-01-29T07:19:10.365Z,100
2023-01-29T07:29:10.920Z,100
2023-01-29T07:39:11.408Z,100
2023-01-29T07:49:11.590Z,100
2023-01-29T07:59:11.937Z,99
2023-01-29T08:09:12.267Z,100
2023-01-29T08:19:12.425Z,100
2023-01-29T08:29:13.078Z,99
2023-01-29T08:59:14.779Z,98
2023-01-29T09:09:15.853Z,98
2023-01-29T09:19:16.475Z,97
2023-01-29T09:29:17.152Z,97
2023-01-29T09:39:17.505Z,97
2023-01-29T09:49:17.899Z,97
2023-01-29T09:59:18.084Z,96
2023-01-29T10:09:18.768Z,96
2023-01-29T10:19:18.978Z,96
2023-01-29T10:39:20.283Z,95
2023-01-29T10:49:20.648Z,95
2023-01-29T10:59:20.884Z,94
2023-01-29T11:19:22.222Z,93
2023-01-29T11:29:22.500Z,93
2023-01-29T11:39:22.816Z,93
2023-01-29T11:59:23.576Z,92
2023-01-29T12:19:24.099Z,92
2023-01-29T12:29:24.324Z,92
2023-01-29T13:19:27.260Z,92
2023-01-29T13:29:28.213Z,91
2023-01-29T13:39:28.955Z,91
2023-01-29T13:49:29.456Z,91
2023-01-29T13:59:30.423Z,91
2023-01-29T14:09:30.603Z,91
2023-01-29T14:19:31.326Z,91
2023-01-29T14:29:34.898Z,91
2023-01-29T14:49:32.720Z,91
2023-01-29T14:59:33.239Z,92
2023-01-29T15:19:34.271Z,92
2023-01-29T15:29:34.732Z,93
2023-01-29T15:39:34.924Z,93
2023-01-29T15:49:35.207Z,93
2023-01-29T15:59:35.758Z,93
2023-01-29T16:09:35.809Z,93
2023-01-29T16:39:37.689Z,93
2023-01-29T16:49:38.520Z,93
2023-01-29T16:59:38.835Z,93
2023-01-29T17:09:39.568Z,93
2023-01-29T17:29:40.408Z,93
2023-01-29T17:59:41.246Z,93
2023-01-29T18:29:42.851Z,94
2023-01-29T18:39:43.091Z,96
2023-01-29T18:59:45.141Z,100
2023-01-29T19:19:46.119Z,100
2023-01-29T19:29:46.318Z,100
2023-01-29T19:59:47.554Z,95
2023-01-29T20:29:50.061Z,96
2023-01-29T20:39:50.833Z,96
2023-01-29T20:49:51.542Z,96
2023-01-29T20:59:51.947Z,96
2023-01-29T21:09:52.546Z,97
2023-01-29T21:19:53.484Z,98
2023-01-29T21:39:55.522Z,99
2023-01-29T21:49:55.836Z,100
2023-01-29T21:59:56.918Z,100
2023-01-29T22:19:57.730Z,100
2023-01-29T22:39:59.624Z,100
2023-01-29T23:00:01.081Z,100
2023-01-29T23:10:01.625Z,100
2023-01-29T23:20:02.205Z,100
2023-01-29T23:30:02.377Z,100
2023-01-29T23:40:02.805Z,100
